Time;durP1;ratioP1;P1;durP2;ratioP2;P2;SDS_P1;SDS_P2;PMS_P1;PMS_P2;Temp;Humidity;BMP_temperature;BMP_pressure;BME280_temperature;BME280_humidity;BME280_pressure;Samples;Min_cycle;Max_cycle;Signal;HPM_P1;HPM_P2
2022/05/31 00:00:00;;;;;;;;;;;;;;;;;;5009128;27;19918;-76
2022/05/31 00:02:26;;;;;;;;;;;;;;;;;;5008822;28;19922;-76
2022/05/31 00:04:52;;;;;;;;;;;;;;;;;;5077995;28;19944;-76
2022/05/31 00:07:17;;;;;;;;;;;;;;;;;;4993478;28;19914;-76
2022/05/31 00:09:43;;;;;;;;;;;;;;;;;;4992486;28;20264;-76
2022/05/31 00:12:08;;;;;;;;;;;;;;;;;;4993882;28;19918;-76
2022/05/31 00:14:34;;;;;;;;;;;;;;;;;;5008992;28;19913;-76
2022/05/31 00:17:00;;;;;;;;;;;;;;;;;;5008847;28;19925;-76
2022/05/31 00:19:25;;;;;;;;;;;;;;;;;;5008679;28;19917;-75
2022/05/31 00:22:12;;;;;;;;;;;;;;;;;;5025220;27;19922;-76
2022/05/31 00:24:39;;;;;;;;;;;;;;;;;;4976218;28;19963;-76
2022/05/31 00:27:06;;;;;;;;;;;;;;;;;;5077934;28;20010;-74
2022/05/31 00:29:32;;;;;;;;;;;;;;;;;;5009340;28;19960;-74
2022/05/31 00:31:58;;;;;;;;;;;;;;;;;;5028561;28;19925;-74
2022/05/31 00:34:24;;;;;;;;;;;;;;;;;;5011830;28;20513;-74
2022/05/31 00:36:50;;;;;;;;;;;;;;;;;;5011667;28;19974;-76
2022/05/31 00:39:16;;;;;;;;;;;;;;;;;;5011683;28;20431;-76
2022/05/31 00:41:43;;;;;;;;;;;;;;;;;;5028054;28;20394;-76
2022/05/31 00:44:16;;;;;;;;;;;;;;;;;;5027820;28;20102;-76
2022/05/31 00:46:45;;;;;;;;;;;;;;;;;;5028126;28;20447;-75
2022/05/31 00:49:13;;;;;;;;;;;;;;;;;;5011746;28;19918;-76
2022/05/31 00:51:42;;;;;;;;;;;;;;;;;;5011786;28;19940;-76
2022/05/31 00:54:09;;;;;;;;;;;;;;;;;;5008238;28;19975;-76
2022/05/31 00:56:37;;;;;;;;;;;;;;;;;;5024779;28;19925;-76
2022/05/31 00:59:15;;;;;;;;;;;;;;;;;;5024016;28;19922;-74
2022/05/31 01:01:42;;;;;;;;;;;;;;;;;;5024531;28;20067;-74
2022/05/31 01:04:09;;;;;;;;;;;;;;;;;;4993219;28;19925;-74
2022/05/31 01:06:35;;;;;;;;;;;;;;;;;;5008003;28;19918;-74
2022/05/31 01:09:01;;;;;;;;;;;;;;;;;;5007880;28;20008;-74
2022/05/31 01:11:31;;;;;;;;;;;;;;;;;;5007655;28;19928;-74
2022/05/31 01:14:23;;;;;;;;;;;;;;;;;;5004775;28;19917;-74
2022/05/31 01:17:12;;;;;;;;;;;;;;;;;;4994261;28;20030;-76
2022/05/31 01:19:57;;;;;;;;;;;;;;;;;;4994447;28;20329;-76
2022/05/31 01:22:35;;;;;;;;;;;;;;;;;;5007444;28;19922;-76
2022/05/31 01:25:19;;;;;;;;;;;;;;;;;;5007724;28;20013;-76
2022/05/31 01:27:52;;;;;;;;;;;;;;;;;;5041273;28;19918;-74
2022/05/31 01:30:17;;;;;;;;;;;;;;;;;;5060351;28;19924;-75
2022/05/31 01:32:46;;;;;;;;;;;;;;;;;;5011098;28;19918;-76
2022/05/31 01:35:18;;;;;;;;;;;;;;;;;;5010818;28;19917;-76
2022/05/31 01:37:51;;;;;;;;;;;;;;;;;;5011143;28;20244;-76
2022/05/31 01:40:21;;;;;;;;;;;;;;;;;;5011982;28;19917;-76
2022/05/31 01:42:46;;;;;;;;;;;;;;;;;;5027135;28;19929;-76
2022/05/31 01:45:11;;;;;;;;;;;;;;;;;;5011997;28;20260;-75
2022/05/31 01:47:38;;;;;;;;;;;;;;;;;;5043776;28;19917;-76
2022/05/31 01:50:08;;;;;;;;;;;;;;;;;;5027180;28;19924;-74
2022/05/31 01:52:33;;;;;;;;;;;;;;;;;;5010566;28;20290;-75
2022/05/31 01:54:59;;;;;;;;;;;;;;;;;;5010987;28;19917;-76
2022/05/31 01:57:26;;;;;;;;;;;;;;;;;;5010062;28;20382;-76
2022/05/31 01:59:58;;;;;;;;;;;;;;;;;;5027113;28;19924;-76
2022/05/31 02:02:23;;;;;;;;;;;;;;;;;;5026749;27;19929;-76
2022/05/31 02:04:49;;;;;;;;;;;;;;;;;;5026890;28;19917;-76
2022/05/31 02:07:20;;;;;;;;;;;;;;;;;;5025960;28;20525;-76
2022/05/31 02:09:50;;;;;;;;;;;;;;;;;;5010163;28;20008;-75
2022/05/31 02:12:24;;;;;;;;;;;;;;;;;;5025534;28;19924;-76
2022/05/31 02:15:08;;;;;;;;;;;;;;;;;;5030514;28;20000;-78
2022/05/31 02:17:37;;;;;;;;;;;;;;;;;;5010586;28;19959;-77
2022/05/31 02:20:29;;;;;;;;;;;;;;;;;;5006732;28;19918;-77
2022/05/31 02:22:58;;;;;;;;;;;;;;;;;;5007327;28;19922;-77
2022/05/31 02:25:25;;;;;;;;;;;;;;;;;;5006804;28;19959;-75
2022/05/31 02:27:51;;;;;;;;;;;;;;;;;;5006480;28;19918;-75
2022/05/31 02:30:16;;;;;;;;;;;;;;;;;;5006937;28;19918;-76
2022/05/31 02:32:42;;;;;;;;;;;;;;;;;;4991575;28;19918;-76
2022/05/31 02:35:09;;;;;;;;;;;;;;;;;;5006640;28;19962;-76
2022/05/31 02:37:35;;;;;;;;;;;;;;;;;;5076563;28;20260;-76
2022/05/31 02:40:00;;;;;;;;;;;;;;;;;;5022919;28;20047;-76
2022/05/31 02:42:28;;;;;;;;;;;;;;;;;;5006399;28;19975;-76
2022/05/31 02:44:56;;;;;;;;;;;;;;;;;;5006478;28;19918;-76
2022/05/31 02:47:24;;;;;;;;;;;;;;;;;;5006671;28;19925;-75
2022/05/31 02:49:51;;;;;;;;;;;;;;;;;;5006813;28;19944;-75
2022/05/31 02:52:19;;;;;;;;;;;;;;;;;;5006690;28;19918;-76
2022/05/31 02:54:44;;;;;;;;;;;;;;;;;;5005690;28;19924;-75
2022/05/31 02:57:19;;;;;;;;;;;;;;;;;;4991269;28;20260;-76
2022/05/31 02:59:53;;;;;;;;;;;;;;;;;;4991522;28;20264;-78
2022/05/31 03:02:22;;;;;;;;;;;;;;;;;;5023290;27;19948;-77
2022/05/31 03:05:07;;;;;;;;;;;;;;;;;;5003580;28;20306;-76
2022/05/31 03:07:59;;;;;;;;;;;;;;;;;;5003742;28;20326;-76
2022/05/31 03:10:30;;;;;;;;;;;;;;;;;;5022332;28;20375;-76
2022/05/31 03:12:55;;;;;;;;;;;;;;;;;;5006327;28;19921;-76
2022/05/31 03:15:21;;;;;;;;;;;;;;;;;;4990907;28;19963;-76
2022/05/31 03:17:51;;;;;;;;;;;;;;;;;;5006111;28;19961;-76
2022/05/31 03:20:23;;;;;;;;;;;;;;;;;;4991027;28;19957;-75
2022/05/31 03:22:50;;;;;;;;;;;;;;;;;;5022664;28;19921;-76
2022/05/31 03:25:20;;;;;;;;;;;;;;;;;;5006044;28;20004;-76
2022/05/31 03:27:46;;;;;;;;;;;;;;;;;;4991134;28;20026;-76
2022/05/31 03:30:12;;;;;;;;;;;;;;;;;;5022348;28;19921;-76
2022/05/31 03:32:37;;;;;;;;;;;;;;;;;;5022452;28;19925;-76
2022/05/31 03:35:04;;;;;;;;;;;;;;;;;;5006156;28;19918;-76
2022/05/31 03:37:30;;;;;;;;;;;;;;;;;;5026168;28;19929;-76
2022/05/31 03:40:00;;;;;;;;;;;;;;;;;;5028184;28;19965;-76
2022/05/31 03:42:25;;;;;;;;;;;;;;;;;;5028958;28;19990;-75
2022/05/31 03:44:51;;;;;;;;;;;;;;;;;;5028268;28;19932;-76
2022/05/31 03:47:36;;;;;;;;;;;;;;;;;;5040690;28;19924;-76
2022/05/31 03:50:23;;;;;;;;;;;;;;;;;;5005658;28;19922;-74
2022/05/31 03:52:48;;;;;;;;;;;;;;;;;;5029148;28;19918;-76
2022/05/31 03:55:16;;;;;;;;;;;;;;;;;;5028880;28;19923;-76
2022/05/31 03:57:49;;;;;;;;;;;;;;;;;;5060610;27;19921;-76
2022/05/31 04:00:36;;;;;;;;;;;;;;;;;;5026239;28;19962;-75
2022/05/31 04:03:16;;;;;;;;;;;;;;;;;;5025792;27;20419;-75
2022/05/31 04:05:46;;;;;;;;;;;;;;;;;;5009131;28;19918;-75
2022/05/31 04:08:16;;;;;;;;;;;;;;;;;;4992754;28;19924;-76
2022/05/31 04:10:43;;;;;;;;;;;;;;;;;;5008969;28;19982;-77
2022/05/31 04:13:09;;;;;;;;;;;;;;;;;;5008827;28;19924;-77
2022/05/31 04:16:12;;;;;;;;;;;;;;;;;;5074179;28;19924;-78
2022/05/31 04:18:41;;;;;;;;;;;;;;;;;;5003346;28;20424;-76
2022/05/31 04:21:08;;;;;;;;;;;;;;;;;;5025412;28;19957;-77
2022/05/31 04:26:37;;;;;;;;;;;;;;;;;;4993911;28;19918;-77
2022/05/31 04:29:21;;;;;;;;;;;;;;;;;;4992657;28;19925;-76
2022/05/31 04:32:08;;;;;;;;;;;;;;;;;;5035704;28;20309;-76
2022/05/31 04:34:43;;;;;;;;;;;;;;;;;;5011021;28;19922;-76
2022/05/31 04:37:09;;;;;;;;;;;;;;;;;;5012300;28;19963;-77
2022/05/31 04:40:01;;;;;;;;;;;;;;;;;;5013801;28;19920;-81
2022/05/31 04:42:46;;;;;;;;;;;;;;;;;;5015496;28;20336;-79
2022/05/31 04:45:35;;;;;;;;;;;;;;;;;;5013918;28;20000;-80
2022/05/31 04:48:18;;;;;;;;;;;;;;;;;;5001454;28;19922;-80
2022/05/31 04:50:43;;;;;;;;;;;;;;;;;;5002335;28;19953;-80
2022/05/31 04:53:11;;;;;;;;;;;;;;;;;;5024053;28;20107;-80
2022/05/31 04:55:58;;;;;;;;;;;;;;;;;;5008777;28;19917;-80
2022/05/31 04:58:23;;;;;;;;;;;;;;;;;;5006336;28;19928;-80
2022/05/31 05:00:48;;;;;;;;;;;;;;;;;;5005021;28;19956;-77
2022/05/31 05:03:19;;;;;;;;;;;;;;;;;;5031498;28;19957;-81
2022/05/31 05:05:45;;;;;;;;;;;;;;;;;;5018782;28;19917;-81
2022/05/31 05:08:16;;;;;;;;;;;;;;;;;;5015880;28;19918;-81
2022/05/31 05:10:46;;;;;;;;;;;;;;;;;;5015288;28;19925;-79
2022/05/31 05:13:39;;;;;;;;;;;;;;;;;;5014492;28;19917;-78
2022/05/31 05:16:05;;;;;;;;;;;;;;;;;;5013127;28;19918;-80
2022/05/31 05:18:36;;;;;;;;;;;;;;;;;;5018799;28;19939;-80
2022/05/31 05:21:03;;;;;;;;;;;;;;;;;;5000559;28;20005;-79
2022/05/31 05:23:31;;;;;;;;;;;;;;;;;;5031460;28;20387;-80
2022/05/31 05:26:00;;;;;;;;;;;;;;;;;;5013968;28;19918;-80
2022/05/31 05:31:35;;;;;;;;;;;;;;;;;;5007168;28;19924;-80
2022/05/31 05:34:18;;;;;;;;;;;;;;;;;;5019246;28;19985;-79
2022/05/31 05:36:54;;;;;;;;;;;;;;;;;;5031453;28;20016;-81
2022/05/31 05:39:20;;;;;;;;;;;;;;;;;;5037693;28;19917;-83
2022/05/31 05:41:58;;;;;;;;;;;;;;;;;;5021774;28;20086;-81
2022/05/31 05:44:47;;;;;;;;;;;;;;;;;;5017046;28;19917;-84
2022/05/31 05:47:16;;;;;;;;;;;;;;;;;;5001862;28;19935;-84
2022/05/31 05:49:45;;;;;;;;;;;;;;;;;;5001901;28;19917;-83
2022/05/31 05:52:30;;;;;;;;;;;;;;;;;;5018887;28;19922;-83
2022/05/31 05:55:31;;;;;;;;;;;;;;;;;;4988421;28;20294;-83
2022/05/31 05:58:16;;;;;;;;;;;;;;;;;;4990084;28;19922;-83
2022/05/31 06:01:01;;;;;;;;;;;;;;;;;;5021758;28;19943;-83
2022/05/31 06:03:49;;;;;;;;;;;;;;;;;;5037685;28;19921;-83
2022/05/31 06:06:16;;;;;;;;;;;;;;;;;;5037367;28;19960;-82
2022/05/31 06:08:52;;;;;;;;;;;;;;;;;;5036431;28;20023;-83
2022/05/31 06:11:20;;;;;;;;;;;;;;;;;;5036602;28;19918;-83
2022/05/31 06:14:10;;;;;;;;;;;;;;;;;;5037645;28;19917;-83
2022/05/31 06:16:40;;;;;;;;;;;;;;;;;;5030379;28;19917;-82
2022/05/31 06:19:11;;;;;;;;;;;;;;;;;;5019661;28;19971;-82
2022/05/31 06:21:36;;;;;;;;;;;;;;;;;;5036891;28;20020;-82
2022/05/31 06:24:15;;;;;;;;;;;;;;;;;;5037513;28;19978;-82
2022/05/31 06:26:43;;;;;;;;;;;;;;;;;;5035228;28;19970;-82
2022/05/31 06:29:09;;;;;;;;;;;;;;;;;;5036546;28;19918;-82
2022/05/31 06:31:35;;;;;;;;;;;;;;;;;;5048433;28;20016;-82
2022/05/31 06:34:08;;;;;;;;;;;;;;;;;;5074223;27;19924;-82
2022/05/31 06:37:07;;;;;;;;;;;;;;;;;;5040910;28;19918;-82
2022/05/31 06:39:35;;;;;;;;;;;;;;;;;;5057202;28;19949;-82
2022/05/31 06:42:02;;;;;;;;;;;;;;;;;;5057420;28;20356;-82
2022/05/31 06:44:59;;;;;;;;;;;;;;;;;;5065083;27;19917;-81
2022/05/31 06:47:43;;;;;;;;;;;;;;;;;;5041792;28;20331;-83
2022/05/31 06:50:28;;;;;;;;;;;;;;;;;;5034759;28;19917;-81
2022/05/31 06:59:08;;;;;;;;;;;;;;;;;;5034946;28;20005;-81
2022/05/31 07:01:37;;;;;;;;;;;;;;;;;;5033178;28;19922;-80
2022/05/31 07:04:06;;;;;;;;;;;;;;;;;;5010789;28;19922;-80
2022/05/31 07:06:32;;;;;;;;;;;;;;;;;;5010046;28;20016;-80
2022/05/31 07:09:17;;;;;;;;;;;;;;;;;;4994865;28;19925;-80
2022/05/31 07:11:43;;;;;;;;;;;;;;;;;;5009283;28;19918;-81
2022/05/31 07:14:30;;;;;;;;;;;;;;;;;;4997488;28;19925;-80
2022/05/31 07:17:24;;;;;;;;;;;;;;;;;;4998176;28;19918;-81
2022/05/31 07:19:55;;;;;;;;;;;;;;;;;;4998092;28;19927;-80
2022/05/31 07:22:22;;;;;;;;;;;;;;;;;;5019557;27;19967;-80
2022/05/31 07:25:01;;;;;;;;;;;;;;;;;;5093487;28;19925;-80
2022/05/31 07:27:30;;;;;;;;;;;;;;;;;;5097432;28;20035;-83
2022/05/31 07:30:02;;;;;;;;;;;;;;;;;;5097902;28;19918;-80
2022/05/31 07:32:29;;;;;;;;;;;;;;;;;;5099816;28;19925;-79
2022/05/31 07:34:55;;;;;;;;;;;;;;;;;;5030048;28;19918;-79
2022/05/31 07:37:22;;;;;;;;;;;;;;;;;;5029569;27;19918;-79
2022/05/31 07:39:48;;;;;;;;;;;;;;;;;;5030079;28;19918;-79
2022/05/31 07:42:15;;;;;;;;;;;;;;;;;;5029557;28;19929;-79
2022/05/31 07:44:43;;;;;;;;;;;;;;;;;;5028947;28;19971;-79
2022/05/31 07:47:10;;;;;;;;;;;;;;;;;;5029856;28;19925;-79
2022/05/31 07:49:36;;;;;;;;;;;;;;;;;;5029558;27;19921;-79
2022/05/31 07:52:41;;;;;;;;;;;;;;;;;;5097578;28;19920;-78
2022/05/31 07:55:37;;;;;;;;;;;;;;;;;;5068530;28;19925;-80
2022/05/31 08:01:14;;;;;;;;;;;;;;;;;;4997655;28;19924;-79
2022/05/31 08:03:42;;;;;;;;;;;;;;;;;;5029385;28;19922;-79
2022/05/31 08:06:12;;;;;;;;;;;;;;;;;;5048550;28;19918;-79
2022/05/31 08:08:39;;;;;;;;;;;;;;;;;;5051544;28;19917;-79
2022/05/31 08:11:09;;;;;;;;;;;;;;;;;;5036835;28;19963;-78
2022/05/31 08:13:36;;;;;;;;;;;;;;;;;;5051532;28;19917;-78
2022/05/31 08:16:04;;;;;;;;;;;;;;;;;;5070488;27;19917;-79
2022/05/31 08:18:29;;;;;;;;;;;;;;;;;;5053821;28;19924;-79
2022/05/31 08:20:58;;;;;;;;;;;;;;;;;;5039098;28;19917;-80
2022/05/31 08:23:24;;;;;;;;;;;;;;;;;;5054504;28;20306;-82
2022/05/31 08:25:49;;;;;;;;;;;;;;;;;;5036668;28;19921;-81
2022/05/31 08:28:16;;;;;;;;;;;;;;;;;;5018413;28;19928;-79
2022/05/31 08:30:42;;;;;;;;;;;;;;;;;;5037938;28;19917;-80
2022/05/31 08:33:07;;;;;;;;;;;;;;;;;;5020043;28;20286;-80
2022/05/31 08:35:32;;;;;;;;;;;;;;;;;;5037633;28;19917;-77
2022/05/31 08:37:58;;;;;;;;;;;;;;;;;;5035004;28;19923;-77
2022/05/31 08:40:23;;;;;;;;;;;;;;;;;;5014877;28;19917;-76
2022/05/31 08:42:50;;;;;;;;;;;;;;;;;;5047793;28;19921;-75
2022/05/31 08:45:34;;;;;;;;;;;;;;;;;;5018780;28;19917;-75
2022/05/31 08:48:04;;;;;;;;;;;;;;;;;;5012507;28;19967;-77
2022/05/31 08:53:35;;;;;;;;;;;;;;;;;;5015769;28;19918;-76
2022/05/31 08:59:06;;;;;;;;;;;;;;;;;;5044496;28;19928;-77
2022/05/31 09:01:34;;;;;;;;;;;;;;;;;;4991014;28;19949;-76
2022/05/31 09:04:11;;;;;;;;;;;;;;;;;;5004486;28;20290;-76
2022/05/31 09:06:43;;;;;;;;;;;;;;;;;;5012399;28;19924;-77
2022/05/31 09:09:26;;;;;;;;;;;;;;;;;;4994920;28;19997;-76
2022/05/31 09:11:51;;;;;;;;;;;;;;;;;;5014315;28;19925;-78
2022/05/31 09:14:21;;;;;;;;;;;;;;;;;;5014631;28;19917;-78
2022/05/31 09:16:49;;;;;;;;;;;;;;;;;;5040558;28;20369;-76
2022/05/31 09:19:17;;;;;;;;;;;;;;;;;;4993924;28;20390;-76
2022/05/31 09:21:45;;;;;;;;;;;;;;;;;;5011238;28;20275;-77
2022/05/31 09:24:14;;;;;;;;;;;;;;;;;;5043480;28;19945;-76
2022/05/31 09:26:40;;;;;;;;;;;;;;;;;;5023115;28;20163;-76
2022/05/31 09:29:06;;;;;;;;;;;;;;;;;;5030382;28;19917;-77
2022/05/31 09:31:50;;;;;;;;;;;;;;;;;;5016856;28;19917;-77
2022/05/31 09:34:34;;;;;;;;;;;;;;;;;;5036888;28;20047;-77
2022/05/31 09:37:35;;;;;;;;;;;;;;;;;;5045847;28;20127;-76
2022/05/31 09:40:01;;;;;;;;;;;;;;;;;;4996934;28;19917;-77
2022/05/31 09:42:36;;;;;;;;;;;;;;;;;;5002780;28;20269;-78
2022/05/31 09:45:10;;;;;;;;;;;;;;;;;;5112867;28;19922;-77
2022/05/31 09:47:35;;;;;;;;;;;;;;;;;;5113409;28;19951;-77
2022/05/31 09:50:01;;;;;;;;;;;;;;;;;;5112621;28;19970;-77
2022/05/31 09:52:30;;;;;;;;;;;;;;;;;;5113948;28;19916;-77
2022/05/31 09:58:30;;;;;;;;;;;;;;;;;;5114398;28;19969;-77
2022/05/31 10:01:22;;;;;;;;;;;;;;;;;;5142610;27;19922;-77
2022/05/31 10:03:55;;;;;;;;;;;;;;;;;;5067303;28;19921;-77
2022/05/31 10:06:22;;;;;;;;;;;;;;;;;;5011223;28;19964;-77
2022/05/31 10:08:48;;;;;;;;;;;;;;;;;;5011466;28;19924;-77
2022/05/31 10:11:20;;;;;;;;;;;;;;;;;;5026540;28;19924;-77
2022/05/31 10:14:01;;;;;;;;;;;;;;;;;;5027095;28;19924;-77
2022/05/31 10:16:33;;;;;;;;;;;;;;;;;;5010400;28;19978;-78
2022/05/31 10:19:00;;;;;;;;;;;;;;;;;;5005048;28;19925;-77
2022/05/31 10:21:28;;;;;;;;;;;;;;;;;;4991774;28;20375;-77
2022/05/31 10:23:54;;;;;;;;;;;;;;;;;;5006815;28;19925;-77
2022/05/31 10:27:02;;;;;;;;;;;;;;;;;;4991696;28;20345;-77
2022/05/31 10:29:44;;;;;;;;;;;;;;;;;;5006728;28;19922;-77
2022/05/31 10:32:25;;;;;;;;;;;;;;;;;;5028074;28;19972;-77
2022/05/31 10:35:03;;;;;;;;;;;;;;;;;;5010011;28;19921;-77
2022/05/31 10:37:32;;;;;;;;;;;;;;;;;;5009589;28;19982;-76
2022/05/31 10:40:15;;;;;;;;;;;;;;;;;;5011055;28;19918;-77
2022/05/31 10:42:42;;;;;;;;;;;;;;;;;;5009805;28;19925;-77
2022/05/31 10:45:16;;;;;;;;;;;;;;;;;;5026342;28;19918;-77
2022/05/31 10:47:46;;;;;;;;;;;;;;;;;;5025648;28;19924;-77
2022/05/31 10:50:14;;;;;;;;;;;;;;;;;;5010726;28;20393;-77
2022/05/31 10:52:40;;;;;;;;;;;;;;;;;;5023215;28;19925;-77
2022/05/31 10:55:12;;;;;;;;;;;;;;;;;;5029472;28;19917;-76
2022/05/31 10:57:56;;;;;;;;;;;;;;;;;;5062534;28;20290;-77
2022/05/31 11:00:26;;;;;;;;;;;;;;;;;;5019869;28;19932;-78
2022/05/31 11:02:58;;;;;;;;;;;;;;;;;;4998813;28;19922;-77
2022/05/31 11:05:50;;;;;;;;;;;;;;;;;;5012217;28;19918;-77
2022/05/31 11:11:44;;;;;;;;;;;;;;;;;;5010371;28;19956;-76
2022/05/31 11:14:22;;;;;;;;;;;;;;;;;;5006877;28;19918;-80
2022/05/31 11:17:03;;;;;;;;;;;;;;;;;;5011048;28;19917;-77
2022/05/31 11:19:41;;;;;;;;;;;;;;;;;;5008492;28;19917;-75
2022/05/31 11:22:21;;;;;;;;;;;;;;;;;;5008696;28;20020;-75
2022/05/31 11:24:49;;;;;;;;;;;;;;;;;;4994603;28;20013;-77
2022/05/31 11:27:19;;;;;;;;;;;;;;;;;;5014156;28;19918;-81
2022/05/31 11:30:01;;;;;;;;;;;;;;;;;;4997817;28;20367;-85
2022/05/31 11:32:34;;;;;;;;;;;;;;;;;;5026884;28;20371;-81
2022/05/31 11:35:03;;;;;;;;;;;;;;;;;;4995320;28;19918;-81
2022/05/31 11:37:57;;;;;;;;;;;;;;;;;;5065245;27;19918;-80
2022/05/31 11:40:23;;;;;;;;;;;;;;;;;;5055119;28;19917;-81
2022/05/31 11:42:49;;;;;;;;;;;;;;;;;;5067695;28;19921;-80
2022/05/31 11:45:30;;;;;;;;;;;;;;;;;;5019081;28;19917;-82
2022/05/31 11:48:16;;;;;;;;;;;;;;;;;;5011759;28;19918;-85
2022/05/31 11:51:15;;;;;;;;;;;;;;;;;;5013783;28;19917;-85
2022/05/31 11:53:48;;;;;;;;;;;;;;;;;;4976980;28;19971;-82
2022/05/31 11:56:18;;;;;;;;;;;;;;;;;;4993451;28;19932;-79
2022/05/31 11:58:47;;;;;;;;;;;;;;;;;;4995238;28;19922;-79
2022/05/31 12:01:20;;;;;;;;;;;;;;;;;;5014205;28;20004;-79
2022/05/31 12:04:05;;;;;;;;;;;;;;;;;;5015755;28;19929;-79
2022/05/31 12:06:34;;;;;;;;;;;;;;;;;;5014735;28;19928;-79
2022/05/31 12:08:59;;;;;;;;;;;;;;;;;;5015187;28;19917;-79
2022/05/31 12:11:29;;;;;;;;;;;;;;;;;;4998490;28;19917;-79
2022/05/31 12:13:57;;;;;;;;;;;;;;;;;;4999913;28;19917;-79
2022/05/31 12:16:22;;;;;;;;;;;;;;;;;;5016261;28;19917;-79
2022/05/31 12:18:47;;;;;;;;;;;;;;;;;;5032404;28;20397;-79
2022/05/31 12:21:19;;;;;;;;;;;;;;;;;;5048095;28;19918;-79
2022/05/31 12:23:54;;;;;;;;;;;;;;;;;;5048466;28;20406;-79
2022/05/31 12:26:23;;;;;;;;;;;;;;;;;;5015646;28;19925;-79
2022/05/31 12:29:05;;;;;;;;;;;;;;;;;;5030894;28;20471;-79
2022/05/31 12:31:32;;;;;;;;;;;;;;;;;;5032023;28;19928;-79
2022/05/31 12:34:11;;;;;;;;;;;;;;;;;;5032394;28;20398;-79
2022/05/31 12:36:55;;;;;;;;;;;;;;;;;;5048191;28;19918;-79
2022/05/31 12:39:27;;;;;;;;;;;;;;;;;;5015741;28;19925;-79
2022/05/31 12:41:53;;;;;;;;;;;;;;;;;;5030985;28;20316;-78
2022/05/31 12:44:27;;;;;;;;;;;;;;;;;;5013873;28;19924;-79
2022/05/31 12:46:55;;;;;;;;;;;;;;;;;;5027917;28;19952;-76
2022/05/31 12:49:26;;;;;;;;;;;;;;;;;;5011643;28;20012;-77
2022/05/31 12:54:56;;;;;;;;;;;;;;;;;;5042904;28;19937;-76
2022/05/31 12:58:26;;;;;;;;;;;;;;;;;;5027165;28;19917;-76
2022/05/31 13:00:26;;;;;;;;;;;;;;;;;;5041292;28;19960;-80
2022/05/31 13:02:54;;;;;;;;;;;;;;;;;;4995906;28;20450;-80
2022/05/31 13:05:37;;;;;;;;;;;;;;;;;;5028736;28;20341;-80
2022/05/31 13:08:12;;;;;;;;;;;;;;;;;;5014069;28;19918;-80
2022/05/31 13:10:39;;;;;;;;;;;;;;;;;;5030483;28;19945;-80
2022/05/31 13:21:25;;;;;;;;;;;;;;;;;;5047175;28;19949;-80
2022/05/31 13:23:50;;;;;;;;;;;;;;;;;;5013652;28;20079;-80
2022/05/31 13:26:26;;;;;;;;;;;;;;;;;;5012688;28;20286;-80
2022/05/31 13:29:08;;;;;;;;;;;;;;;;;;5029227;28;19918;-80
2022/05/31 13:31:37;;;;;;;;;;;;;;;;;;5062814;28;19959;-80
2022/05/31 13:34:04;;;;;;;;;;;;;;;;;;5031062;28;19947;-80
2022/05/31 13:36:32;;;;;;;;;;;;;;;;;;5014198;28;19917;-80
2022/05/31 13:39:01;;;;;;;;;;;;;;;;;;5016439;28;19918;-80
2022/05/31 13:41:27;;;;;;;;;;;;;;;;;;5033274;28;19917;-80
2022/05/31 13:43:56;;;;;;;;;;;;;;;;;;5034897;28;19967;-80
2022/05/31 13:46:36;;;;;;;;;;;;;;;;;;5022589;28;19943;-79
2022/05/31 13:49:04;;;;;;;;;;;;;;;;;;5010603;28;19918;-76
2022/05/31 13:51:31;;;;;;;;;;;;;;;;;;5027049;28;19918;-78
2022/05/31 13:54:04;;;;;;;;;;;;;;;;;;5021961;28;19917;-80
2022/05/31 13:56:36;;;;;;;;;;;;;;;;;;5043284;28;20371;-81
2022/05/31 13:59:02;;;;;;;;;;;;;;;;;;5039818;28;19928;-81
2022/05/31 14:01:28;;;;;;;;;;;;;;;;;;5031808;28;19957;-81
2022/05/31 14:03:55;;;;;;;;;;;;;;;;;;5037126;28;19918;-81
2022/05/31 14:06:21;;;;;;;;;;;;;;;;;;5039228;28;19922;-81
2022/05/31 14:08:56;;;;;;;;;;;;;;;;;;5023624;28;19937;-79
2022/05/31 14:11:26;;;;;;;;;;;;;;;;;;5038865;28;19918;-78
2022/05/31 14:13:53;;;;;;;;;;;;;;;;;;5043172;28;19961;-79
2022/05/31 14:16:27;;;;;;;;;;;;;;;;;;5042247;28;19918;-79
2022/05/31 14:18:53;;;;;;;;;;;;;;;;;;5046390;28;19918;-80
2022/05/31 14:21:20;;;;;;;;;;;;;;;;;;5042107;28;19924;-84
2022/05/31 14:23:45;;;;;;;;;;;;;;;;;;5035360;28;19922;-81
2022/05/31 14:26:11;;;;;;;;;;;;;;;;;;5050619;27;19921;-79
2022/05/31 14:28:36;;;;;;;;;;;;;;;;;;5015726;28;19924;-80
2022/05/31 14:31:03;;;;;;;;;;;;;;;;;;5036775;28;19918;-80
2022/05/31 14:33:31;;;;;;;;;;;;;;;;;;5037989;28;19938;-79
2022/05/31 14:35:57;;;;;;;;;;;;;;;;;;5037575;28;19917;-81
2022/05/31 14:38:35;;;;;;;;;;;;;;;;;;5031886;28;20340;-80
2022/05/31 14:41:10;;;;;;;;;;;;;;;;;;5064250;28;19922;-81
2022/05/31 14:43:55;;;;;;;;;;;;;;;;;;5015307;28;19971;-80
2022/05/31 14:46:24;;;;;;;;;;;;;;;;;;5009991;28;19918;-80
2022/05/31 14:48:50;;;;;;;;;;;;;;;;;;5026602;28;19918;-79
2022/05/31 14:51:16;;;;;;;;;;;;;;;;;;5025563;28;19925;-79
2022/05/31 14:53:43;;;;;;;;;;;;;;;;;;5010436;28;19917;-79
2022/05/31 14:56:24;;;;;;;;;;;;;;;;;;5009411;28;19933;-80
2022/05/31 14:58:58;;;;;;;;;;;;;;;;;;4994902;28;19925;-79
2022/05/31 15:01:28;;;;;;;;;;;;;;;;;;5009766;28;20416;-80
2022/05/31 15:04:23;;;;;;;;;;;;;;;;;;5009915;28;20004;-80
2022/05/31 15:06:58;;;;;;;;;;;;;;;;;;4979583;28;19992;-80
2022/05/31 15:09:31;;;;;;;;;;;;;;;;;;4996106;28;19918;-83
2022/05/31 15:20:13;;;;;;;;;;;;;;;;;;5048536;28;19917;-80
2022/05/31 15:22:43;;;;;;;;;;;;;;;;;;5066076;28;19928;-80
2022/05/31 15:25:14;;;;;;;;;;;;;;;;;;5029160;28;19949;-81
2022/05/31 15:27:39;;;;;;;;;;;;;;;;;;5013374;28;19984;-80
2022/05/31 15:30:05;;;;;;;;;;;;;;;;;;5012185;28;20422;-80
2022/05/31 15:32:31;;;;;;;;;;;;;;;;;;4999787;28;19922;-80
2022/05/31 15:34:56;;;;;;;;;;;;;;;;;;5009420;28;19971;-80
2022/05/31 15:37:24;;;;;;;;;;;;;;;;;;5012143;28;19979;-80
2022/05/31 15:39:54;;;;;;;;;;;;;;;;;;5012643;28;19921;-80
2022/05/31 15:42:20;;;;;;;;;;;;;;;;;;4997314;28;20341;-80
2022/05/31 15:44:47;;;;;;;;;;;;;;;;;;5013488;28;19968;-80
2022/05/31 15:47:13;;;;;;;;;;;;;;;;;;5030267;28;19924;-80
2022/05/31 15:49:39;;;;;;;;;;;;;;;;;;5013404;28;19917;-80
2022/05/31 15:52:24;;;;;;;;;;;;;;;;;;5013963;28;20402;-80
2022/05/31 15:54:55;;;;;;;;;;;;;;;;;;4997097;28;20375;-80
2022/05/31 15:57:20;;;;;;;;;;;;;;;;;;4997082;28;20341;-80
2022/05/31 15:59:46;;;;;;;;;;;;;;;;;;4997732;28;19925;-80
2022/05/31 16:02:11;;;;;;;;;;;;;;;;;;5049380;27;19922;-80
2022/05/31 16:04:38;;;;;;;;;;;;;;;;;;5033669;28;19934;-80
2022/05/31 16:07:14;;;;;;;;;;;;;;;;;;5033654;28;19922;-80
2022/05/31 16:09:44;;;;;;;;;;;;;;;;;;5034263;28;19917;-79
2022/05/31 16:12:12;;;;;;;;;;;;;;;;;;5030222;28;19978;-78
2022/05/31 16:14:39;;;;;;;;;;;;;;;;;;5012763;28;20315;-79
2022/05/31 16:17:07;;;;;;;;;;;;;;;;;;5012602;28;20405;-77
2022/05/31 16:19:32;;;;;;;;;;;;;;;;;;5028837;28;19940;-77
2022/05/31 16:21:57;;;;;;;;;;;;;;;;;;5014485;28;19922;-78
2022/05/31 16:24:28;;;;;;;;;;;;;;;;;;5029992;28;19917;-78
2022/05/31 16:26:54;;;;;;;;;;;;;;;;;;5013579;28;19918;-78
2022/05/31 16:29:21;;;;;;;;;;;;;;;;;;5029799;28;19917;-79
2022/05/31 16:31:48;;;;;;;;;;;;;;;;;;5014381;28;19925;-78
2022/05/31 16:34:14;;;;;;;;;;;;;;;;;;5026591;28;19917;-78
2022/05/31 16:36:41;;;;;;;;;;;;;;;;;;4994314;28;19918;-79
2022/05/31 16:41:51;;;;;;;;;;;;;;;;;;5031219;28;19922;-78
2022/05/31 16:44:16;;;;;;;;;;;;;;;;;;5031587;28;19940;-78
2022/05/31 16:46:41;;;;;;;;;;;;;;;;;;5014423;28;19918;-78
2022/05/31 16:49:07;;;;;;;;;;;;;;;;;;5030678;28;19939;-78
2022/05/31 16:51:37;;;;;;;;;;;;;;;;;;5030615;28;20412;-78
2022/05/31 16:54:05;;;;;;;;;;;;;;;;;;5030053;28;20387;-78
2022/05/31 16:56:32;;;;;;;;;;;;;;;;;;5029538;28;19971;-78
2022/05/31 16:58:58;;;;;;;;;;;;;;;;;;5030513;28;19921;-78
2022/05/31 17:01:24;;;;;;;;;;;;;;;;;;5032650;28;19982;-78
2022/05/31 17:03:55;;;;;;;;;;;;;;;;;;5067532;28;19928;-78
2022/05/31 17:14:38;;;;;;;;;;;;;;;;;;5049588;28;19917;-79
2022/05/31 17:17:04;;;;;;;;;;;;;;;;;;5016888;28;20020;-79
2022/05/31 17:19:32;;;;;;;;;;;;;;;;;;5033041;28;19960;-80
2022/05/31 17:21:58;;;;;;;;;;;;;;;;;;5032682;28;20379;-80
2022/05/31 17:24:25;;;;;;;;;;;;;;;;;;5033040;28;19918;-79
2022/05/31 17:26:51;;;;;;;;;;;;;;;;;;5032729;28;19976;-80
2022/05/31 17:29:24;;;;;;;;;;;;;;;;;;5032267;28;19917;-80
2022/05/31 17:31:49;;;;;;;;;;;;;;;;;;5033145;27;20511;-81
2022/05/31 17:34:15;;;;;;;;;;;;;;;;;;5018300;28;19931;-81
2022/05/31 17:36:42;;;;;;;;;;;;;;;;;;5017959;28;19922;-80
2022/05/31 17:39:09;;;;;;;;;;;;;;;;;;5035012;28;19924;-80
2022/05/31 17:41:39;;;;;;;;;;;;;;;;;;5034626;28;20012;-80
2022/05/31 17:44:07;;;;;;;;;;;;;;;;;;5018131;28;19922;-79
2022/05/31 17:46:33;;;;;;;;;;;;;;;;;;5032979;28;20363;-80
2022/05/31 17:48:58;;;;;;;;;;;;;;;;;;5031342;28;20405;-81
2022/05/31 17:51:25;;;;;;;;;;;;;;;;;;5033212;28;20005;-76
2022/05/31 17:53:52;;;;;;;;;;;;;;;;;;5011263;28;20016;-77
2022/05/31 17:56:18;;;;;;;;;;;;;;;;;;5010760;28;19918;-77
2022/05/31 17:58:45;;;;;;;;;;;;;;;;;;5030436;28;19928;-83
2022/05/31 18:01:12;;;;;;;;;;;;;;;;;;5016572;28;20000;-83
2022/05/31 18:03:44;;;;;;;;;;;;;;;;;;5032471;28;19922;-82
2022/05/31 18:06:14;;;;;;;;;;;;;;;;;;5033535;28;19949;-80
2022/05/31 18:08:41;;;;;;;;;;;;;;;;;;5034550;28;19921;-81
2022/05/31 18:11:07;;;;;;;;;;;;;;;;;;5015369;28;19917;-82
2022/05/31 18:13:37;;;;;;;;;;;;;;;;;;5017132;28;19917;-82